Time;durP1;ratioP1;P1;durP2;ratioP2;P2;SDS_P1;SDS_P2;PMS_P1;PMS_P2;Temp;Humidity;BMP_temperature;BMP_pressure;BME280_temperature;BME280_humidity;BME280_pressure;Samples;Min_cycle;Max_cycle;Signal;HPM_P1;HPM_P2
2023/08/28 00:00:10;;;;;;;18.70;15.50;;;;;;;20.62;100.00;99735.52;105692;1259;61798;-64
2023/08/28 00:02:37;;;;;;;14.20;12.70;;;;;;;20.62;100.00;99739.74;105610;1256;74684;-62
2023/08/28 00:05:04;;;;;;;14.20;12.60;;;;;;;20.61;100.00;99740.16;105656;1257;65784;-63
2023/08/28 00:07:31;;;;;;;14.50;11.30;;;;;;;20.57;100.00;99738.00;105515;1257;72691;-60
2023/08/28 00:09:58;;;;;;;14.50;13.10;;;;;;;20.53;100.00;99743.48;105711;1257;61221;-61
2023/08/28 00:12:25;;;;;;;14.20;12.40;;;;;;;20.50;100.00;99741.48;105184;1257;61199;-60
2023/08/28 00:14:52;;;;;;;17.80;14.10;;;;;;;20.49;100.00;99744.63;105600;1257;74875;-60
2023/08/28 00:17:19;;;;;;;16.40;14.70;;;;;;;20.48;100.00;99741.85;105460;1259;65490;-60
2023/08/28 00:19:46;;;;;;;16.20;14.10;;;;;;;20.47;100.00;99739.73;105597;1256;72796;-64
2023/08/28 00:22:13;;;;;;;15.60;13.90;;;;;;;20.47;100.00;99744.34;105409;1259;61327;-60
2023/08/28 00:24:40;;;;;;;15.00;12.60;;;;;;;20.45;100.00;99746.56;105644;1255;61215;-61
2023/08/28 00:27:07;;;;;;;14.40;12.50;;;;;;;20.44;100.00;99742.95;105764;1259;74519;-60
2023/08/28 00:29:34;;;;;;;13.30;12.00;;;;;;;20.41;100.00;99738.87;105517;1256;66957;-60
2023/08/28 00:32:01;;;;;;;15.50;12.30;;;;;;;20.41;100.00;99739.02;105489;1257;72760;-63
2023/08/28 00:34:28;;;;;;;14.70;12.40;;;;;;;20.40;100.00;99737.91;105559;1257;61837;-60
2023/08/28 00:36:55;;;;;;;14.50;13.00;;;;;;;20.39;100.00;99745.64;105721;1257;61282;-60
2023/08/28 00:39:22;;;;;;;14.20;12.60;;;;;;;20.38;100.00;99746.53;105473;1256;74510;-60
2023/08/28 00:41:49;;;;;;;14.20;12.80;;;;;;;20.36;100.00;99743.67;105573;1257;67192;-61
2023/08/28 00:44:16;;;;;;;14.60;13.10;;;;;;;20.33;100.00;99743.29;105327;1257;72240;-62
2023/08/28 00:46:43;;;;;;;13.50;12.20;;;;;;;20.29;100.00;99743.80;105460;1257;62043;-60
2023/08/28 00:49:11;;;;;;;14.80;13.40;;;;;;;20.25;100.00;99741.24;105572;1255;61327;-60
2023/08/28 00:51:38;;;;;;;17.80;14.20;;;;;;;20.21;100.00;99743.46;105458;1256;74692;-62
2023/08/28 00:54:07;;;;;;;14.50;13.00;;;;;;;20.20;100.00;99741.17;105411;1255;65832;-61
2023/08/28 00:56:36;;;;;;;15.20;12.30;;;;;;;20.16;100.00;99742.06;105399;1261;72851;-60
2023/08/28 00:59:03;;;;;;;15.70;12.40;;;;;;;20.11;100.00;99745.75;105507;1259;61281;-61
2023/08/28 01:01:30;;;;;;;14.70;13.10;;;;;;;20.07;100.00;99742.92;105659;1259;61250;-60
2023/08/28 01:03:57;;;;;;;14.40;12.90;;;;;;;20.01;100.00;99742.27;105747;1258;73472;-63
2023/08/28 01:06:28;;;;;;;15.90;14.00;;;;;;;19.95;100.00;99743.13;105201;1261;66018;-60
2023/08/28 01:09:06;;;;;;;14.90;13.50;;;;;;;19.89;100.00;99746.23;105565;1257;72809;-60
2023/08/28 01:11:40;;;;;;;16.60;13.50;;;;;;;19.84;100.00;99745.88;105259;1257;62015;-65
2023/08/28 01:14:25;;;;;;;14.00;12.40;;;;;;;19.81;100.00;99743.42;105254;1259;61445;-61
2023/08/28 01:17:05;;;;;;;14.70;13.20;;;;;;;19.79;100.00;99743.58;105537;1256;73308;-60
2023/08/28 01:19:34;;;;;;;14.40;12.70;;;;;;;19.77;100.00;99746.73;105637;1257;67805;-62
2023/08/28 01:22:10;;;;;;;17.30;14.20;;;;;;;19.74;100.00;99748.36;105627;1257;72635;-61
2023/08/28 01:24:49;;;;;;;15.10;13.70;;;;;;;19.68;100.00;99750.82;105709;1255;61208;-60
2023/08/28 01:27:17;;;;;;;15.20;13.60;;;;;;;19.62;100.00;99749.39;105347;1256;61241;-62
2023/08/28 01:29:45;;;;;;;15.40;13.80;;;;;;;19.59;100.00;99748.13;105447;1259;75189;-60
2023/08/28 01:32:12;;;;;;;15.90;13.90;;;;;;;19.56;100.00;99746.27;105620;1259;66652;-61
2023/08/28 01:34:39;;;;;;;14.40;13.00;;;;;;;19.54;100.00;99745.02;105443;1257;72640;-61
2023/08/28 01:37:10;;;;;;;15.30;13.30;;;;;;;19.53;100.00;99748.09;105267;1256;61925;-64
2023/08/28 01:39:43;;;;;;;14.90;13.40;;;;;;;19.51;100.00;99749.35;105502;1260;61231;-61
2023/08/28 01:42:10;;;;;;;16.90;13.70;;;;;;;19.47;100.00;99749.27;105709;1256;75159;-60
2023/08/28 01:44:37;;;;;;;15.90;14.30;;;;;;;19.45;100.00;99746.98;106045;1256;67918;-61
2023/08/28 01:47:04;;;;;;;15.60;14.00;;;;;;;19.46;100.00;99747.83;105505;1262;72699;-63
2023/08/28 01:49:32;;;;;;;14.70;13.20;;;;;;;19.46;100.00;99743.71;105360;1255;61343;-60
2023/08/28 01:51:59;;;;;;;17.20;15.40;;;;;;;19.47;100.00;99746.62;105628;1259;61244;-60
2023/08/28 01:54:26;;;;;;;16.20;14.70;;;;;;;19.49;100.00;99752.52;105452;1256;73375;-62
2023/08/28 01:56:53;;;;;;;14.00;12.50;;;;;;;19.50;100.00;99751.08;105564;1256;67064;-60
2023/08/28 01:59:20;;;;;;;16.00;14.30;;;;;;;19.49;100.00;99757.73;105404;1256;72693;-64
2023/08/28 02:01:47;;;;;;;16.50;14.60;;;;;;;19.46;100.00;99752.33;105396;1256;61328;-62
2023/08/28 02:04:15;;;;;;;15.30;13.20;;;;;;;19.44;100.00;99749.61;105659;1257;61243;-60
2023/08/28 02:06:41;;;;;;;15.00;13.50;;;;;;;19.40;100.00;99749.59;105293;1256;74693;-61
2023/08/28 02:09:08;;;;;;;15.00;13.10;;;;;;;19.36;100.00;99746.97;105060;1257;65942;-62
2023/08/28 02:11:35;;;;;;;14.10;12.60;;;;;;;19.32;100.00;99743.72;105078;1259;71425;-60
2023/08/28 02:14:04;;;;;;;15.20;13.30;;;;;;;19.29;100.00;99741.47;105546;1257;61701;-60
2023/08/28 02:16:31;;;;;;;14.90;12.60;;;;;;;19.27;100.00;99743.09;105608;1256;61264;-61
2023/08/28 02:18:58;;;;;;;15.40;12.50;;;;;;;19.24;100.00;99740.69;105473;1257;74453;-60
2023/08/28 02:21:25;;;;;;;13.40;12.00;;;;;;;19.22;100.00;99741.21;105618;1256;66997;-61
2023/08/28 02:23:52;;;;;;;12.90;11.70;;;;;;;19.20;100.00;99738.48;105285;1259;72762;-62
2023/08/28 02:26:19;;;;;;;14.10;12.70;;;;;;;19.18;100.00;99732.24;105588;1257;61822;-61
2023/08/28 02:28:46;;;;;;;16.00;14.20;;;;;;;19.16;100.00;99735.40;105687;1257;61305;-62
2023/08/28 02:31:13;;;;;;;15.50;13.90;;;;;;;19.15;100.00;99738.09;105451;1259;73537;-61
2023/08/28 02:33:40;;;;;;;16.50;14.50;;;;;;;19.13;100.00;99740.67;105843;1256;65680;-61
2023/08/28 02:36:07;;;;;;;15.20;13.50;;;;;;;19.13;100.00;99743.67;105166;1257;73282;-61
2023/08/28 02:38:34;;;;;;;13.70;12.40;;;;;;;19.12;100.00;99746.92;105538;1259;61785;-60
2023/08/28 02:41:05;;;;;;;13.60;12.20;;;;;;;19.10;100.00;99745.92;105636;1260;61102;-62
2023/08/28 02:43:32;;;;;;;13.50;11.60;;;;;;;19.10;100.00;99746.34;105545;1256;74606;-61
2023/08/28 02:46:01;;;;;;;13.90;12.30;;;;;;;19.10;100.00;99742.23;105625;1256;67277;-65
2023/08/28 02:48:28;;;;;;;13.80;11.80;;;;;;;19.11;100.00;99741.06;105091;1258;72598;-60
2023/08/28 02:50:55;;;;;;;13.50;12.10;;;;;;;19.12;100.00;99746.78;105587;1259;62019;-62
2023/08/28 02:53:21;;;;;;;14.80;13.30;;;;;;;19.18;100.00;99748.25;105509;1259;61146;-62
2023/08/28 02:56:17;;;;;;;13.50;12.20;;;;;;;19.23;100.00;99749.35;105885;1256;73575;-60
2023/08/28 02:58:44;;;;;;;16.00;14.30;;;;;;;19.29;100.00;99750.41;105526;1257;66026;-65
2023/08/28 03:01:11;;;;;;;17.40;15.60;;;;;;;19.34;100.00;99750.34;105446;1257;73684;-62
2023/08/28 03:03:38;;;;;;;17.10;15.30;;;;;;;19.39;100.00;99754.17;106019;1256;62132;-65
2023/08/28 03:06:05;;;;;;;17.60;15.80;;;;;;;19.46;100.00;99757.72;105593;1256;61228;-61
2023/08/28 03:08:33;;;;;;;16.20;14.50;;;;;;;19.54;100.00;99761.64;105500;1259;74832;-60
2023/08/28 03:11:00;;;;;;;18.50;15.50;;;;;;;19.64;100.00;99770.93;105644;1259;65972;-64
2023/08/28 03:13:27;;;;;;;16.50;14.90;;;;;;;19.76;100.00;99772.81;105471;1257;71388;-60
2023/08/28 03:15:54;;;;;;;16.90;14.50;;;;;;;19.89;100.00;99773.09;105690;1255;61294;-63
2023/08/28 03:18:21;;;;;;;16.70;15.00;;;;;;;20.04;100.00;99770.11;105248;1257;60401;-61
2023/08/28 03:20:48;;;;;;;15.70;14.10;;;;;;;20.18;100.00;99768.06;105418;1258;74638;-61
2023/08/28 03:23:15;;;;;;;14.90;13.50;;;;;;;20.33;100.00;99770.18;105486;1260;66074;-64
2023/08/28 03:25:42;;;;;;;16.70;15.00;;;;;;;20.48;100.00;99769.24;105508;1256;73024;-62
2023/08/28 03:28:10;;;;;;;18.50;16.60;;;;;;;20.67;100.00;99769.09;105459;1257;63493;-64
2023/08/28 03:30:37;;;;;;;29.10;22.20;;;;;;;20.92;100.00;99771.80;105356;1257;61240;-61
2023/08/28 03:33:04;;;;;;;19.30;17.20;;;;;;;21.29;100.00;99772.20;105413;1254;73495;-64
2023/08/28 03:35:32;;;;;;;16.90;15.10;;;;;;;21.79;100.00;99767.97;105196;1259;65984;-60
2023/08/28 03:37:59;;;;;;;17.80;15.60;;;;;;;22.36;100.00;99762.40;105454;1259;72768;-60
2023/08/28 03:40:26;;;;;;;29.90;24.60;;;;;;;23.03;100.00;99766.30;105430;1258;62745;-61
2023/08/28 03:42:53;;;;;;;31.60;25.60;;;;;;;23.74;100.00;99768.80;105550;1259;61120;-61
2023/08/28 03:45:20;;;;;;;25.00;20.20;;;;;;;24.40;100.00;99769.45;105601;1256;74772;-63
2023/08/28 03:47:47;;;;;;;24.80;18.70;;;;;;;25.04;100.00;99756.73;105479;1257;67228;-61
2023/08/28 03:50:14;;;;;;;19.00;16.90;;;;;;;25.70;100.00;99747.81;105271;1256;72476;-65
2023/08/28 03:52:41;;;;;;;18.90;16.60;;;;;;;26.37;100.00;99734.48;105462;1256;62575;-61
2023/08/28 03:55:08;;;;;;;17.10;13.60;;;;;;;27.03;100.00;99711.70;105586;1259;61199;-60
2023/08/28 03:57:37;;;;;;;14.90;13.40;;;;;;;27.65;100.00;99689.42;105610;1256;72727;-64
2023/08/28 04:00:10;;;;;;;16.80;15.10;;;;;;;28.27;100.00;99677.38;105216;1257;67477;-62
2023/08/28 04:02:41;;;;;;;17.10;14.20;;;;;;;28.89;100.00;99662.52;105500;1256;72499;-61
2023/08/28 04:05:09;;;;;;;16.30;14.70;;;;;;;29.52;100.00;99659.36;105344;1259;61247;-61
2023/08/28 04:07:36;;;;;;;14.70;13.10;;;;;;;30.05;100.00;99647.28;105519;1257;60352;-62
2023/08/28 04:10:04;;;;;;;16.10;14.60;;;;;;;30.54;100.00;99640.05;105272;1256;74597;-61
2023/08/28 04:12:32;;;;;;;15.40;13.90;;;;;;;31.06;100.00;99639.27;105610;1259;66053;-62
2023/08/28 04:15:00;;;;;;;14.80;13.40;;;;;;;31.54;100.00;99643.37;105356;1257;71874;-62
2023/08/28 04:17:27;;;;;;;16.80;13.80;;;;;;;32.04;100.00;99643.02;105785;1257;61287;-64
2023/08/28 04:19:55;;;;;;;14.30;12.80;;;;;;;32.49;100.00;99641.95;105494;1256;61179;-62
2023/08/28 04:22:22;;;;;;;13.80;12.10;;;;;;;32.95;100.00;99637.52;105369;1254;73435;-64
2023/08/28 04:24:49;;;;;;;15.50;11.70;;;;;;;33.30;100.00;99636.52;105485;1257;67801;-61
2023/08/28 04:27:17;;;;;;;11.40;10.40;;;;;;;33.55;100.00;99636.41;105532;1257;63898;-62
2023/08/28 04:29:44;;;;;;;11.80;10.00;;;;;;;33.80;100.00;99632.64;105582;1257;61139;-64
2023/08/28 04:32:11;;;;;;;11.40;10.20;;;;;;;34.01;100.00;99632.41;105562;1257;61123;-61
2023/08/28 04:34:38;;;;;;;11.00;10.00;;;;;;;34.17;100.00;99634.98;105265;1260;66157;-63
2023/08/28 04:37:05;;;;;;;12.40;10.80;;;;;;;34.41;100.00;99642.48;105454;1257;61243;-61
2023/08/28 04:39:32;;;;;;;14.80;13.30;;;;;;;34.64;100.00;99643.83;105389;1259;62624;-60
2023/08/28 04:41:59;;;;;;;15.90;14.30;;;;;;;34.74;100.00;99641.54;105412;1256;61266;-61
2023/08/28 04:44:26;;;;;;;18.60;16.80;;;;;;;34.83;100.00;99640.06;105471;1259;61150;-61
2023/08/28 04:46:53;;;;;;;18.10;16.30;;;;;;;34.97;100.00;99639.29;105533;1257;66065;-64
2023/08/28 04:49:20;;;;;;;18.30;16.30;;;;;;;35.14;100.00;99645.91;105542;1256;61273;-61
2023/08/28 04:51:48;;;;;;;18.70;16.80;;;;;;;35.37;100.00;99644.98;105387;1257;64169;-62
2023/08/28 04:54:15;;;;;;;17.40;15.50;;;;;;;35.63;100.00;99641.64;105483;1258;61276;-61
2023/08/28 04:56:42;;;;;;;14.60;13.00;;;;;;;35.91;100.00;99639.98;105812;1257;61249;-62
2023/08/28 04:59:08;;;;;;;13.50;12.10;;;;;;;36.20;99.52;99639.50;105033;1256;66570;-63
2023/08/28 05:01:36;;;;;;;12.80;11.70;;;;;;;36.49;97.14;99641.06;105515;1256;60049;-64
2023/08/28 05:04:04;;;;;;;13.30;12.10;;;;;;;36.78;92.93;99634.74;105383;1256;62891;-61
2023/08/28 05:06:31;;;;;;;13.10;11.90;;;;;;;37.07;89.31;99631.50;105461;1255;59972;-59
2023/08/28 05:08:58;;;;;;;14.10;12.60;;;;;;;37.36;84.46;99627.77;105569;1257;61670;-61
2023/08/28 05:11:25;;;;;;;14.40;13.10;;;;;;;37.61;80.39;99626.13;105308;1258;65875;-64
2023/08/28 05:13:52;;;;;;;14.00;12.80;;;;;;;37.81;75.37;99621.01;105471;1259;61241;-62
2023/08/28 05:16:19;;;;;;;12.50;11.50;;;;;;;37.99;73.81;99618.61;105472;1256;63881;-61
2023/08/28 05:18:46;;;;;;;13.80;12.40;;;;;;;38.32;71.55;99616.22;105598;1257;61337;-63
2023/08/28 05:21:13;;;;;;;13.30;12.20;;;;;;;38.66;67.03;99615.90;105160;1257;61163;-62
2023/08/28 05:23:41;;;;;;;13.30;12.10;;;;;;;38.85;63.96;99612.34;105319;1255;65882;-61
2023/08/28 05:26:08;;;;;;;13.70;12.50;;;;;;;38.99;61.27;99609.61;105389;1260;61215;-60
2023/08/28 05:28:37;;;;;;;13.30;12.10;;;;;;;39.18;60.83;99601.80;105580;1257;62613;-60
2023/08/28 05:31:04;;;;;;;12.20;11.10;;;;;;;39.41;59.48;99599.98;105781;1257;61238;-64
2023/08/28 05:33:33;;;;;;;13.00;11.90;;;;;;;39.59;57.00;99599.30;105415;1257;61248;-61
2023/08/28 05:36:00;;;;;;;11.80;10.60;;;;;;;39.51;56.60;99596.59;105526;1256;65016;-61
2023/08/28 05:38:27;;;;;;;13.60;12.20;;;;;;;39.30;56.87;99595.09;105363;1260;61122;-61
2023/08/28 05:40:54;;;;;;;14.90;13.40;;;;;;;39.06;56.87;99593.23;105584;1259;62591;-61
2023/08/28 05:43:21;;;;;;;15.20;12.30;;;;;;;38.89;58.06;99590.69;105444;1257;61331;-63
2023/08/28 05:45:49;;;;;;;14.20;12.80;;;;;;;38.74;58.75;99585.23;105540;1255;61145;-63
2023/08/28 05:48:17;;;;;;;14.40;12.30;;;;;;;38.54;59.42;99579.78;105393;1259;65995;-62
2023/08/28 05:50:45;;;;;;;12.50;11.30;;;;;;;38.40;62.10;99578.61;105493;1256;61288;-60
2023/08/28 05:53:12;;;;;;;12.30;11.10;;;;;;;38.46;62.04;99578.52;105595;1259;64035;-64
2023/08/28 05:55:39;;;;;;;13.80;11.90;;;;;;;38.62;59.67;99575.73;105412;1256;61259;-62
2023/08/28 05:58:06;;;;;;;12.10;11.00;;;;;;;38.76;58.34;99575.66;105330;1260;61209;-61
2023/08/28 06:00:33;;;;;;;13.30;11.80;;;;;;;38.83;57.17;99573.49;105539;1258;65900;-60
2023/08/28 06:03:00;;;;;;;13.00;11.90;;;;;;;38.83;58.08;99569.92;105553;1257;61329;-61
2023/08/28 06:05:28;;;;;;;14.00;11.70;;;;;;;38.83;57.79;99568.76;105380;1262;64377;-62
2023/08/28 06:07:55;;;;;;;13.80;12.60;;;;;;;38.66;59.16;99572.39;105127;1259;61218;-61
2023/08/28 06:10:23;;;;;;;13.50;12.20;;;;;;;38.37;61.28;99571.90;105521;1259;61212;-60
2023/08/28 06:12:50;;;;;;;13.10;12.00;;;;;;;38.21;63.55;99569.14;105468;1257;65899;-60
2023/08/28 06:15:18;;;;;;;14.00;12.80;;;;;;;38.12;63.96;99566.96;105699;1257;61289;-63
2023/08/28 06:17:46;;;;;;;14.60;13.40;;;;;;;38.02;63.76;99568.16;105260;1257;73825;-60
2023/08/28 06:20:13;;;;;;;12.50;11.30;;;;;;;37.99;66.81;99565.98;105605;1259;61145;-60
2023/08/28 06:22:42;;;;;;;13.20;11.90;;;;;;;38.22;66.64;99558.73;105564;1257;61219;-59
2023/08/28 06:25:09;;;;;;;14.40;13.00;;;;;;;38.57;64.71;99554.19;105774;1259;64720;-62
2023/08/28 06:27:36;;;;;;;13.60;12.30;;;;;;;38.79;60.45;99555.42;105418;1259;61193;-60
2023/08/28 06:30:04;;;;;;;11.60;10.50;;;;;;;38.82;59.82;99556.21;105543;1257;62991;-60
2023/08/28 06:32:31;;;;;;;12.30;10.50;;;;;;;38.98;59.84;99554.10;105466;1257;61336;-65
2023/08/28 06:34:59;;;;;;;11.70;10.70;;;;;;;39.23;57.68;99549.53;105734;1259;61234;-62
2023/08/28 06:37:26;;;;;;;12.60;11.10;;;;;;;39.61;55.32;99547.15;105936;1255;64810;-62
2023/08/28 06:39:53;;;;;;;12.80;11.60;;;;;;;39.78;52.34;99547.48;105237;1257;61242;-61
2023/08/28 06:42:20;;;;;;;12.70;11.60;;;;;;;39.83;53.08;99546.19;105547;1259;64189;-63
2023/08/28 06:44:50;;;;;;;;;;;;;;;39.97;51.50;99546.04;105653;1259;61234;-60
2023/08/28 06:47:17;;;;;;;12.50;11.40;;;;;;;39.98;50.61;99543.45;105389;1258;61183;-63
2023/08/28 06:49:44;;;;;;;12.60;11.50;;;;;;;40.04;50.59;99542.64;105232;1256;66497;-61
2023/08/28 06:52:11;;;;;;;13.20;12.00;;;;;;;40.19;51.25;99541.61;105534;1259;61279;-60
2023/08/28 06:54:38;;;;;;;12.20;11.00;;;;;;;40.42;48.83;99539.95;105637;1257;64169;-60
2023/08/28 06:57:08;;;;;;;11.50;10.50;;;;;;;40.70;47.64;99535.05;105453;1259;60079;-60
2023/08/28 06:59:35;;;;;;;11.90;10.70;;;;;;;41.08;45.74;99533.68;105295;1256;61245;-62
2023/08/28 07:02:03;;;;;;;12.80;11.50;;;;;;;41.39;43.59;99535.77;105433;1259;66613;-60
2023/08/28 07:04:30;;;;;;;13.00;11.80;;;;;;;41.49;42.50;99535.20;105483;1256;61212;-60
2023/08/28 07:06:57;;;;;;;11.30;10.30;;;;;;;41.57;42.66;99538.14;105454;1259;62748;-60
2023/08/28 07:09:24;;;;;;;11.40;10.40;;;;;;;41.76;41.12;99536.86;105510;1257;61254;-60
2023/08/28 07:11:52;;;;;;;12.00;10.90;;;;;;;41.99;41.33;99532.64;105552;1257;61139;-61
2023/08/28 07:14:19;;;;;;;11.30;10.30;;;;;;;42.23;40.81;99531.11;105142;1257;64637;-60
2023/08/28 07:16:46;;;;;;;12.50;10.80;;;;;;;42.51;39.55;99529.47;105340;1259;61228;-62
2023/08/28 07:19:13;;;;;;;11.10;10.00;;;;;;;42.65;38.23;99525.96;105560;1258;62906;-62
2023/08/28 07:21:40;;;;;;;13.10;9.50;;;;;;;42.71;38.36;99526.17;105542;1259;61339;-60
2023/08/28 07:24:08;;;;;;;10.30;9.40;;;;;;;42.94;36.12;99525.60;105299;1259;60030;-60
2023/08/28 07:26:35;;;;;;;9.40;8.60;;;;;;;43.07;34.37;99520.98;105486;1254;64511;-60
2023/08/28 07:29:02;;;;;;;9.10;8.30;;;;;;;43.15;34.30;99521.13;105361;1257;61282;-61
2023/08/28 07:31:29;;;;;;;9.90;8.90;;;;;;;43.31;33.44;99518.86;105385;1260;65026;-60
2023/08/28 07:33:59;;;;;;;8.90;8.00;;;;;;;43.46;32.88;99522.38;105478;1259;61231;-61
2023/08/28 07:36:26;;;;;;;8.20;7.40;;;;;;;43.66;32.13;99516.86;105645;1259;61104;-63
2023/08/28 07:38:53;;;;;;;9.80;8.50;;;;;;;43.82;31.75;99514.06;105445;1257;66097;-60
2023/08/28 07:41:20;;;;;;;8.00;7.30;;;;;;;43.85;30.88;99512.52;105474;1259;61345;-63
2023/08/28 07:43:48;;;;;;;8.10;7.40;;;;;;;43.97;30.91;99513.83;105372;1257;62850;-60
2023/08/28 07:46:14;;;;;;;7.60;6.80;;;;;;;44.20;30.46;99510.99;105590;1260;61228;-60
2023/08/28 07:48:41;;;;;;;8.50;7.40;;;;;;;44.37;29.90;99506.20;105620;1256;61423;-61
2023/08/28 07:51:09;;;;;;;8.40;7.40;;;;;;;44.49;29.58;99504.48;105543;1257;65101;-60
2023/08/28 07:53:37;;;;;;;8.00;6.80;;;;;;;44.55;29.40;99506.43;105741;1259;61286;-63
2023/08/28 07:56:04;;;;;;;7.30;6.10;;;;;;;44.71;28.06;99503.69;105233;1257;64281;-61
2023/08/28 07:58:32;;;;;;;5.90;5.30;;;;;;;44.83;27.04;99501.16;105356;1260;61139;-62
2023/08/28 08:00:59;;;;;;;6.60;6.00;;;;;;;44.88;26.57;99498.42;105574;1259;61226;-60
2023/08/28 08:03:27;;;;;;;7.00;5.70;;;;;;;44.99;26.83;99497.58;105471;1259;64854;-61
2023/08/28 08:05:55;;;;;;;6.50;5.80;;;;;;;44.98;26.39;99494.61;105614;1259;61259;-62
2023/08/28 08:08:22;;;;;;;6.90;6.30;;;;;;;44.76;25.96;99490.44;105609;1257;64160;-60
2023/08/28 08:10:49;;;;;;;7.40;6.30;;;;;;;44.47;26.60;99487.11;105700;1257;61204;-60
2023/08/28 08:13:17;;;;;;;8.50;7.80;;;;;;;44.23;26.96;99487.39;105552;1259;61139;-61
2023/08/28 08:15:44;;;;;;;8.20;7.50;;;;;;;43.96;28.18;99482.30;105515;1257;68011;-62
2023/08/28 08:18:11;;;;;;;8.20;7.50;;;;;;;44.00;29.04;99482.46;105276;1259;61317;-61
2023/08/28 08:20:38;;;;;;;8.50;7.70;;;;;;;44.15;29.43;99479.95;105567;1259;65537;-60
2023/08/28 08:23:05;;;;;;;8.80;8.00;;;;;;;44.16;28.95;99477.27;105515;1257;61234;-61
2023/08/28 08:25:33;;;;;;;8.00;6.80;;;;;;;44.27;28.19;99477.41;105625;1258;61225;-61
2023/08/28 08:28:02;;;;;;;8.10;7.30;;;;;;;44.44;27.72;99473.77;105723;1258;65919;-62
2023/08/28 08:30:29;;;;;;;8.40;7.60;;;;;;;44.63;27.66;99467.75;105339;1256;61255;-60
2023/08/28 08:32:57;;;;;;;9.20;7.50;;;;;;;44.45;28.08;99471.14;105516;1259;65741;-62
2023/08/28 08:35:24;;;;;;;8.00;7.30;;;;;;;44.32;28.30;99469.91;105612;1260;61189;-60
2023/08/28 08:37:52;;;;;;;7.90;7.20;;;;;;;44.26;27.93;99472.34;105627;1258;61333;-62
2023/08/28 08:40:21;;;;;;;8.00;7.20;;;;;;;43.93;27.75;99472.55;105221;1258;64901;-62
2023/08/28 08:42:48;;;;;;;8.70;7.90;;;;;;;43.36;28.27;99473.05;105396;1259;61337;-60
2023/08/28 08:45:15;;;;;;;8.30;7.20;;;;;;;42.79;29.16;99472.94;105443;1257;64134;-60
2023/08/28 08:47:42;;;;;;;8.10;7.40;;;;;;;42.07;30.51;99471.49;105586;1260;61241;-60
2023/08/28 08:50:09;;;;;;;7.70;6.80;;;;;;;41.35;32.28;99476.49;105654;1257;61256;-66
2023/08/28 08:52:38;;;;;;;7.30;6.60;;;;;;;40.96;34.17;99471.63;105623;1259;66020;-61
2023/08/28 08:55:28;;;;;;;6.70;6.00;;;;;;;40.86;34.64;99471.89;105599;1259;61273;-63
2023/08/28 08:57:55;;;;;;;7.60;6.70;;;;;;;40.90;36.05;99467.86;105699;1270;64654;-60
2023/08/28 09:00:22;;;;;;;8.40;7.00;;;;;;;41.03;36.33;99462.35;105478;1262;61335;-61
2023/08/28 09:02:50;;;;;;;8.50;6.30;;;;;;;41.33;35.37;99458.07;105839;1259;61139;-60
2023/08/28 09:05:17;;;;;;;8.00;6.20;;;;;;;41.69;35.19;99456.90;105643;1259;66041;-62
2023/08/28 09:07:44;;;;;;;8.10;6.40;;;;;;;42.06;33.81;99453.75;105393;1260;61610;-62
2023/08/28 09:10:14;;;;;;;7.80;6.00;;;;;;;42.47;32.27;99451.65;105360;1256;65771;-62
2023/08/28 09:12:42;;;;;;;9.80;6.70;;;;;;;42.68;31.00;99452.63;105658;1257;61232;-62
2023/08/28 09:15:11;;;;;;;7.70;6.40;;;;;;;42.51;30.62;99451.12;105702;1256;61250;-61
2023/08/28 09:17:39;;;;;;;7.00;5.90;;;;;;;42.39;31.68;99450.39;105845;1257;294581;-62
2023/08/28 09:20:34;;;;;;;6.40;5.80;;;;;;;42.46;31.69;99450.02;105448;1259;61298;-60
2023/08/28 09:23:01;;;;;;;6.40;5.50;;;;;;;42.70;30.96;99445.92;105450;1260;64097;-59
2023/08/28 09:25:28;;;;;;;7.00;5.70;;;;;;;42.96;30.65;99448.79;105624;1259;61158;-62
2023/08/28 09:27:56;;;;;;;8.60;6.90;;;;;;;43.14;30.13;99444.67;105431;1266;61233;-60
2023/08/28 09:30:36;;;;;;;7.10;5.90;;;;;;;43.26;30.08;99440.28;105642;1257;64832;-60
2023/08/28 09:33:07;;;;;;;6.70;5.90;;;;;;;43.40;29.35;99438.86;105430;1259;61298;-64
2023/08/28 09:35:37;;;;;;;5.90;5.30;;;;;;;43.44;27.91;99437.23;105571;1257;64868;-60
2023/08/28 09:38:04;;;;;;;6.90;5.50;;;;;;;43.31;27.56;99438.13;105432;1260;61311;-60
2023/08/28 09:40:41;;;;;;;6.40;5.20;;;;;;;43.20;27.86;99439.29;105503;1257;61356;-60
2023/08/28 09:43:15;;;;;;;5.70;5.00;;;;;;;43.05;27.80;99440.30;105655;1256;66403;-62
2023/08/28 09:45:43;;;;;;;6.30;5.50;;;;;;;42.98;28.46;99436.92;105516;1259;61231;-60
2023/08/28 09:48:11;;;;;;;5.50;4.80;;;;;;;42.99;28.29;99444.50;105613;1260;63737;-61
2023/08/28 09:50:41;;;;;;;6.70;4.40;;;;;;;42.91;26.98;99441.36;106003;1259;61237;-61
2023/08/28 09:53:08;;;;;;;7.60;4.40;;;;;;;42.72;26.79;99436.81;105598;1259;61148;-60
2023/08/28 09:55:40;;;;;;;5.20;4.30;;;;;;;42.55;27.27;99437.10;105458;1254;64833;-61
2023/08/28 09:58:08;;;;;;;5.40;4.80;;;;;;;42.68;27.71;99439.46;105364;1258;61248;-61
2023/08/28 10:00:37;;;;;;;5.90;4.90;;;;;;;42.98;27.60;99437.16;105662;1259;62506;-63
2023/08/28 10:03:08;;;;;;;6.10;5.50;;;;;;;43.29;27.43;99435.66;105553;1257;61160;-61
2023/08/28 10:05:40;;;;;;;5.40;4.90;;;;;;;43.49;27.06;99431.78;105545;1259;61190;-62
2023/08/28 10:08:08;;;;;;;8.90;5.00;;;;;;;43.54;26.21;99427.28;105571;1256;64839;-61
2023/08/28 10:10:36;;;;;;;5.70;4.20;;;;;;;43.44;25.83;99427.96;105584;1260;61269;-64
2023/08/28 10:13:04;;;;;;;5.80;4.70;;;;;;;43.24;26.22;99426.91;105213;1259;64164;-61
2023/08/28 10:15:33;;;;;;;6.20;4.60;;;;;;;42.94;27.21;99426.35;105611;1257;61164;-61
2023/08/28 10:18:08;;;;;;;6.00;4.20;;;;;;;42.66;27.30;99426.41;105495;1257;61311;-61
2023/08/28 10:20:35;;;;;;;5.20;4.40;;;;;;;42.51;27.80;99422.15;105606;1259;65020;-63
2023/08/28 10:23:03;;;;;;;6.20;4.00;;;;;;;42.48;27.81;99416.97;105532;1258;61231;-61
2023/08/28 10:25:30;;;;;;;5.90;4.50;;;;;;;42.32;27.59;99414.28;105471;1260;63950;-61
2023/08/28 10:27:58;;;;;;;5.60;4.80;;;;;;;41.87;28.37;99410.48;105536;1255;61856;-60
2023/08/28 10:30:26;;;;;;;6.10;5.40;;;;;;;41.36;29.70;99412.39;105776;1257;61429;-64
2023/08/28 10:32:54;;;;;;;6.70;6.00;;;;;;;40.75;31.26;99411.49;105508;1260;65637;-63
2023/08/28 10:35:22;;;;;;;7.00;5.90;;;;;;;40.24;32.79;99411.85;105573;1260;61219;-61
2023/08/28 10:37:49;;;;;;;7.90;6.40;;;;;;;39.77;33.73;99411.34;105549;1268;64196;-61
2023/08/28 10:40:17;;;;;;;7.30;6.10;;;;;;;39.33;34.93;99413.88;105931;1259;61324;-64
2023/08/28 10:42:44;;;;;;;6.60;5.90;;;;;;;39.18;36.30;99406.69;105599;1259;61211;-64
2023/08/28 10:45:11;;;;;;;7.10;6.20;;;;;;;39.16;37.81;99408.41;105438;1258;68608;-61
2023/08/28 10:47:38;;;;;;;7.50;5.30;;;;;;;39.11;36.88;99408.13;105570;1259;61407;-61
2023/08/28 10:50:06;;;;;;;7.20;5.30;;;;;;;39.12;36.65;99410.61;105467;1260;63887;-61
2023/08/28 10:52:33;;;;;;;5.70;4.60;;;;;;;39.25;34.94;99408.47;105486;1256;61263;-62
2023/08/28 10:55:07;;;;;;;5.20;3.90;;;;;;;39.39;34.57;99405.36;105497;1259;61329;-62
2023/08/28 10:57:35;;;;;;;4.20;3.70;;;;;;;39.67;33.12;99401.14;105597;1259;67892;-61
2023/08/28 11:00:16;;;;;;;5.30;4.30;;;;;;;40.01;32.32;99398.07;105468;1263;61116;-61
2023/08/28 11:03:06;;;;;;;4.70;4.20;;;;;;;40.40;31.77;99394.37;105397;1260;64058;-62
2023/08/28 11:05:33;;;;;;;5.10;3.70;;;;;;;40.78;31.06;99394.98;105849;1259;61122;-62
2023/08/28 11:08:04;;;;;;;6.10;3.90;;;;;;;40.98;29.85;99394.23;105990;1257;61221;-63
2023/08/28 11:10:31;;;;;;;6.30;4.30;;;;;;;40.82;30.01;99390.98;105948;1258;74712;-61
2023/08/28 11:13:01;;;;;;;9.60;5.10;;;;;;;40.59;31.03;99395.60;105467;1260;68945;-60
2023/08/28 11:15:38;;;;;;;6.20;4.30;;;;;;;40.44;31.24;99393.95;105602;1259;65415;-60